createdAt,value
2022-11-02T00:02:55.257Z,6.3
2022-11-02T00:07:46.894Z,6.3
2022-11-02T00:12:53.442Z,6.3
2022-11-02T00:18:14.520Z,6.2
2022-11-02T00:23:36.814Z,6.2
2022-11-02T00:28:58.300Z,6.1
2022-11-02T00:34:22.391Z,6.1
2022-11-02T00:40:04.297Z,6
2022-11-02T00:51:02.958Z,5.8
2022-11-02T00:56:45.442Z,5.8
2022-11-02T01:02:23.301Z,5.7
2022-11-02T01:08:00.763Z,5.6
2022-11-02T01:13:40.328Z,5.4
2022-11-02T01:18:46.866Z,5.4
2022-11-02T01:29:46.233Z,5.3
2022-11-02T01:35:07.460Z,5.3
2022-11-02T01:40:29.323Z,5.3
2022-11-02T01:45:51.529Z,5.2
2022-11-02T01:51:14.134Z,5.2
2022-11-02T01:56:35.702Z,5.1
2022-11-02T02:00:55.873Z,5.1
2022-11-02T02:06:00.996Z,5.1
2022-11-02T02:11:21.905Z,5
2022-11-02T02:16:32.578Z,5
2022-11-02T02:21:54.647Z,4.9
2022-11-02T02:26:44.864Z,4.9
2022-11-02T02:31:51.873Z,4.9
2022-11-02T02:37:13.170Z,4.8
2022-11-02T02:42:35.256Z,4.8
2022-11-02T02:47:57.862Z,4.8
2022-11-02T02:53:19.563Z,4.8
2022-11-02T02:58:56.916Z,4.7
2022-11-02T03:04:04.424Z,4.6
2022-11-02T03:09:41.031Z,4.6
2022-11-02T03:15:02.539Z,4.6
2022-11-02T03:20:25.696Z,4.4
2022-11-02T03:25:46.615Z,4.4
2022-11-02T03:31:08.638Z,4.4
2022-11-02T03:41:04.901Z,4.2
2022-11-02T03:46:26.606Z,4.1
2022-11-02T03:51:33.370Z,4.1
2022-11-02T03:56:54.401Z,4
2022-11-02T04:02:16.624Z,3.9
2022-11-02T04:07:23.667Z,3.8
2022-11-02T04:13:02.666Z,3.7
2022-11-02T04:18:11.716Z,3.6
2022-11-02T04:23:18.094Z,3.6
2022-11-02T04:28:54.686Z,3.4
2022-11-02T04:34:31.679Z,3.4
2022-11-02T04:40:10.333Z,3.3
2022-11-02T04:45:50.042Z,3.3
2022-11-02T04:51:12.260Z,3.3
2022-11-02T04:56:37.705Z,3.2
2022-11-02T05:01:44.500Z,3.1
2022-11-02T05:07:17.542Z,3.1
2022-11-02T05:12:54.721Z,3.1
2022-11-02T05:18:35.631Z,3
2022-11-02T05:24:14.697Z,3
2022-11-02T05:29:41.612Z,3.1
2022-11-02T05:35:19.871Z,3.1
2022-11-02T05:41:00.149Z,3.3
2022-11-02T05:46:37.877Z,3.4
2022-11-02T05:51:59.377Z,3.6
2022-11-02T05:57:22.251Z,4
2022-11-02T06:02:45.083Z,4.6
2022-11-02T06:07:54.360Z,5.3
2022-11-02T06:13:06.515Z,6.3
2022-11-02T06:18:29.011Z,7.7
2022-11-02T06:23:50.561Z,9.4
2022-11-02T06:29:13.446Z,11.4
2022-11-02T06:34:51.675Z,13.8
2022-11-02T06:40:13.529Z,11
2022-11-02T06:46:15.076Z,29
2022-11-02T06:51:59.539Z,27.6
2022-11-02T06:57:06.996Z,30.3
2022-11-02T07:02:30.606Z,34.6
2022-11-02T07:07:41.590Z,35.8
2022-11-02T07:13:04.350Z,36.5
2022-11-02T07:18:43.479Z,37.4
2022-11-02T07:24:05.996Z,38.1
2022-11-02T07:29:43.556Z,38.3
2022-11-02T07:35:11.304Z,36.7
2022-11-02T07:40:49.323Z,37.3
2022-11-02T07:46:31.867Z,38.2
2022-11-02T07:52:13.388Z,37.9
2022-11-02T07:57:37.782Z,38.8
2022-11-02T08:03:19.195Z,39.8
2022-11-02T08:08:27.542Z,40.7
2022-11-02T08:13:49.894Z,41.6
2022-11-02T08:19:12.918Z,42.4
2022-11-02T08:24:36.895Z,43
2022-11-02T08:30:03.689Z,43.8
2022-11-02T08:34:59.628Z,44.4
2022-11-02T08:40:29.583Z,45.3
2022-11-02T08:46:29.133Z,44.6
2022-11-02T08:51:55.039Z,45.6
2022-11-02T08:57:18.016Z,46.4
2022-11-02T09:02:40.237Z,47.2
2022-11-02T09:08:02.461Z,47.9
2022-11-02T09:13:44.820Z,48.6
2022-11-02T09:19:07.501Z,49.3
2022-11-02T09:24:29.604Z,49.9
2022-11-02T09:29:57.835Z,50.3
2022-11-02T09:35:40.947Z,50.9
2022-11-02T09:41:18.282Z,51.4
2022-11-02T09:53:15.764Z,52.5
2022-11-02T09:58:38.077Z,52.9
2022-11-02T10:04:01.034Z,53.3
2022-11-02T10:09:23.490Z,53.8
2022-11-02T10:14:35.333Z,54.1
2022-11-02T10:19:57.500Z,54.5
2022-11-02T10:25:35.188Z,54.9
2022-11-02T10:31:15.624Z,55.3
2022-11-02T10:37:34.010Z,55.6
2022-11-02T10:43:18.819Z,56
2022-11-02T10:54:49.702Z,56.6
2022-11-02T10:59:57.149Z,56.9
2022-11-02T11:05:36.117Z,57.2
2022-11-02T11:10:59.220Z,57.4
2022-11-02T11:20:33.717Z,57.6
2022-11-02T11:25:59.873Z,57.9
2022-11-02T11:31:53.086Z,58
2022-11-02T11:37:21.844Z,58.1
2022-11-02T11:42:32.393Z,58.1
2022-11-02T11:47:15.677Z,58.3
2022-11-02T11:52:55.888Z,58.3
2022-11-02T11:57:47.364Z,58.4
2022-11-02T12:03:01.497Z,58.4
2022-11-02T12:08:23.565Z,58.5
2022-11-02T12:13:55.129Z,58.5
2022-11-02T12:19:22.093Z,58.5
2022-11-02T12:24:44.678Z,58.4
2022-11-02T12:29:51.339Z,58.4
2022-11-02T12:35:39.714Z,58.3
2022-11-02T12:41:42.451Z,58.2
2022-11-02T12:47:05.878Z,58.1
2022-11-02T12:52:13.318Z,57.9
2022-11-02T13:02:49.611Z,57.6
2022-11-02T13:08:15.107Z,57.4
2022-11-02T13:13:25.249Z,57.3
2022-11-02T13:18:54.004Z,57
2022-11-02T13:24:22.188Z,56.8
2022-11-02T13:29:55.581Z,56.4
2022-11-02T13:35:12.100Z,56.1
2022-11-02T13:40:19.144Z,55.8
2022-11-02T13:45:41.805Z,55.4
2022-11-02T13:51:18.766Z,54.9
2022-11-02T13:56:35.871Z,54.5
2022-11-02T14:02:18.426Z,53.9
2022-11-02T14:07:59.945Z,53.4
2022-11-02T14:13:38.221Z,52.9
2022-11-02T14:19:20.124Z,52.3
2022-11-02T14:24:58.856Z,51.8
2022-11-02T14:30:41.716Z,51.1
2022-11-02T14:36:18.727Z,49.1
2022-11-02T14:41:58.196Z,46.5
2022-11-02T14:47:37.170Z,44.1
2022-11-02T14:53:16.021Z,41.9
2022-11-02T14:58:27.190Z,40.2
2022-11-02T15:03:53.988Z,38.4
2022-11-02T15:09:31.884Z,36.7
2022-11-02T15:15:13.886Z,34.9
2022-11-02T15:20:51.458Z,33.3
2022-11-02T15:26:42.061Z,31.7
2022-11-02T15:32:21.309Z,30.3
2022-11-02T15:38:36.828Z,28.9
2022-11-02T15:44:17.429Z,27.6
2022-11-02T15:50:08.749Z,26.5
2022-11-02T15:55:58.650Z,25.5
2022-11-02T16:01:21.195Z,24.7
2022-11-02T16:07:02.774Z,23.9
2022-11-02T16:12:54.543Z,23.1
2022-11-02T16:18:56.219Z,22.4
2022-11-02T16:24:36.026Z,21.8
2022-11-02T16:29:57.654Z,21.3
2022-11-02T16:35:44.181Z,20.7
2022-11-02T16:41:24.347Z,20.2
2022-11-02T16:46:38.643Z,19.6
2022-11-02T16:52:19.217Z,19.1
2022-11-02T16:58:00.301Z,18.6
2022-11-02T17:03:38.227Z,18.2
2022-11-02T17:09:04.620Z,17.9
2022-11-02T17:14:48.562Z,17.6
2022-11-02T17:20:27.253Z,17.3
2022-11-02T17:26:05.182Z,17.1
2022-11-02T17:31:11.848Z,16.9
2022-11-02T17:36:54.874Z,16.7
2022-11-02T17:47:24.386Z,16.3
2022-11-02T17:52:47.007Z,16
2022-11-02T17:58:09.021Z,15.8
2022-11-02T18:03:16.653Z,15.5
2022-11-02T18:08:59.349Z,15.3
2022-11-02T18:14:37.305Z,15.1
2022-11-02T18:20:14.375Z,14.9
2022-11-02T18:25:52.686Z,14.7
2022-11-02T18:31:22.810Z,14.6
2022-11-02T18:37:00.333Z,14.4
2022-11-02T18:42:38.783Z,14.3
2022-11-02T18:48:05.172Z,14.2
2022-11-02T18:53:48.649Z,14.1
2022-11-02T18:59:14.491Z,13.9
2022-11-02T19:04:55.882Z,13.9
2022-11-02T19:10:41.805Z,13.8
2022-11-02T19:16:04.194Z,13.7
2022-11-02T19:21:26.332Z,13.6
2022-11-02T19:27:08.659Z,13.6
2022-11-02T19:32:47.808Z,13.6
2022-11-02T19:38:29.256Z,13.4
2022-11-02T19:44:06.946Z,13.4
2022-11-02T19:49:47.120Z,13.4
2022-11-02T19:55:27.639Z,13.4
2022-11-02T20:01:05.507Z,13.4
2022-11-02T20:06:27.689Z,13.4
2022-11-02T20:12:05.666Z,13.5
2022-11-02T20:18:18.725Z,13.5
2022-11-02T20:23:48.018Z,13.6
2022-11-02T20:29:30.267Z,13.6
2022-11-02T20:34:37.108Z,13.6
2022-11-02T20:40:17.550Z,13.7
2022-11-02T20:46:17.081Z,13.8
2022-11-02T20:52:45.368Z,13.8
2022-11-02T20:58:07.796Z,13.9
2022-11-02T21:03:46.776Z,13.9
2022-11-02T21:09:28.382Z,14
2022-11-02T21:15:06.430Z,14.1
2022-11-02T21:21:11.579Z,14.1
2022-11-02T21:26:34.528Z,14.1
2022-11-02T21:32:11.925Z,14.2
2022-11-02T21:37:50.891Z,14.3
2022-11-02T21:43:13.223Z,14.3
2022-11-02T21:48:51.174Z,14.3
2022-11-02T21:54:29.564Z,14.4
2022-11-02T22:00:12.883Z,14.4
2022-11-02T22:05:51.989Z,14.4
2022-11-02T22:11:19.436Z,14.4
2022-11-02T22:16:56.413Z,14.5
2022-11-02T22:23:02.932Z,14.5
2022-11-02T22:28:42.368Z,14.6
2022-11-02T22:34:19.626Z,14.6
2022-11-02T22:39:41.459Z,14.6
2022-11-02T22:45:19.616Z,14.7
2022-11-02T22:51:01.774Z,14.7
2022-11-02T22:56:23.647Z,14.8
2022-11-02T23:01:46.529Z,14.8
2022-11-02T23:07:08.507Z,14.8
2022-11-02T23:12:46.103Z,14.8
2022-11-02T23:18:07.947Z,14.8
2022-11-02T23:23:33.124Z,14.9
2022-11-02T23:28:55.733Z,14.9
2022-11-02T23:34:33.901Z,14.9
2022-11-02T23:39:40.159Z,14.8
2022-11-02T23:45:17.301Z,14.9
2022-11-02T23:50:39.861Z,14.9
2022-11-02T23:56:16.221Z,14.8
